createdAt,value
2022-12-12T01:50:31.672Z,15.53
2022-12-12T01:52:58.364Z,15.20
2022-12-12T01:55:25.468Z,16.03
2022-12-12T01:57:54.576Z,15.53
2022-12-12T02:00:21.327Z,16.07
2022-12-12T02:02:48.457Z,15.27
2022-12-12T02:05:31.305Z,15.33
2022-12-12T02:08:01.297Z,15.43
2022-12-12T02:10:28.347Z,16.03
2022-12-12T02:13:08.231Z,15.57
2022-12-12T02:15:56.909Z,15.37
2022-12-12T02:18:38.843Z,14.67
2022-12-12T02:21:21.035Z,15.10
2022-12-12T02:24:24.435Z,15.53
2022-12-12T02:27:04.231Z,14.70
2022-12-12T02:29:36.839Z,15.23
2022-12-12T02:32:36.544Z,15.93
2022-12-12T02:35:18.888Z,15.07
2022-12-12T02:38:06.881Z,15.33
2022-12-12T02:40:45.652Z,15.50
2022-12-12T02:43:49.832Z,14.77
2022-12-12T02:46:38.132Z,13.83
2022-12-12T02:49:25.304Z,15.13
2022-12-12T02:51:53.250Z,15.57
2022-12-12T02:54:22.342Z,14.60
2022-12-12T02:56:53.984Z,15.07
2022-12-12T02:59:42.462Z,14.67
2022-12-12T03:02:43.373Z,14.60
2022-12-12T03:05:42.308Z,15.00
2022-12-12T03:08:26.229Z,14.53
2022-12-12T03:11:33.990Z,14.23
2022-12-12T03:14:14.004Z,14.20
2022-12-12T03:16:50.715Z,13.97
2022-12-12T03:19:17.441Z,14.20
2022-12-12T03:22:07.048Z,14.07
2022-12-12T03:24:48.776Z,14.13
2022-12-12T03:27:20.550Z,14.20
2022-12-12T03:29:52.389Z,14.57
2022-12-12T03:32:24.458Z,15.30
2022-12-12T03:34:58.903Z,14.07
2022-12-12T03:37:39.130Z,14.87
2022-12-12T03:40:18.244Z,14.83
2022-12-12T03:42:57.112Z,14.20
2022-12-12T03:45:53.193Z,14.17
2022-12-12T03:48:38.431Z,14.40
2022-12-12T03:51:11.372Z,14.53
2022-12-12T03:53:44.646Z,14.83
2022-12-12T03:56:49.181Z,14.67
2022-12-12T03:59:32.481Z,14.03
2022-12-12T04:02:02.590Z,16.10
2022-12-12T04:04:46.544Z,15.00
2022-12-12T04:07:22.274Z,14.53
2022-12-12T04:10:08.296Z,14.60
2022-12-12T04:13:06.861Z,14.13
2022-12-12T04:16:05.477Z,14.80
2022-12-12T04:19:01.308Z,15.30
2022-12-12T04:22:12.867Z,15.70
2022-12-12T04:24:50.118Z,16.07
2022-12-12T04:27:28.837Z,16.83
2022-12-12T04:29:55.438Z,16.70
2022-12-12T04:32:36.029Z,15.93
2022-12-12T04:35:20.561Z,16.47
2022-12-12T04:37:57.636Z,16.50
2022-12-12T04:40:36.815Z,16.93
2022-12-12T04:43:10.280Z,17.07
2022-12-12T04:45:41.563Z,16.67
2022-12-12T04:48:12.978Z,16.13
2022-12-12T04:50:41.277Z,16.93
2022-12-12T04:53:18.544Z,16.80
2022-12-12T04:55:53.771Z,16.20
2022-12-12T04:58:20.578Z,17.23
2022-12-12T05:01:06.617Z,18.10
2022-12-12T05:03:43.692Z,17.53
2022-12-12T05:06:14.238Z,17.37
2022-12-12T05:08:49.288Z,18.40
2022-12-12T05:11:18.508Z,18.80
2022-12-12T05:13:45.652Z,17.67
2022-12-12T05:16:27.271Z,17.20
2022-12-12T05:18:53.932Z,17.53
2022-12-12T05:21:20.912Z,17.50
2022-12-12T05:23:47.586Z,18.90
2022-12-12T05:26:28.932Z,18.30
2022-12-12T05:28:56.396Z,18.40
2022-12-12T05:31:23.156Z,15.97
2022-12-12T05:33:49.830Z,17.17
2022-12-12T05:36:16.968Z,17.63
2022-12-12T05:38:43.840Z,17.33
2022-12-12T05:41:11.431Z,19.10
2022-12-12T05:43:38.343Z,17.50
2022-12-12T05:46:06.538Z,16.93
2022-12-12T05:48:33.914Z,15.97
2022-12-12T05:51:02.191Z,17.13
2022-12-12T05:53:29.376Z,17.17
2022-12-12T05:55:56.096Z,18.93
2022-12-12T05:58:23.147Z,14.53
2022-12-12T06:00:51.268Z,15.10
2022-12-12T06:03:20.125Z,15.10
2022-12-12T06:05:47.003Z,14.50
2022-12-12T06:08:13.852Z,13.13
2022-12-12T06:10:40.558Z,14.83
2022-12-12T06:13:07.238Z,13.97
2022-12-12T06:15:33.965Z,12.90
2022-12-12T06:18:00.681Z,13.00
2022-12-12T06:20:27.417Z,13.00
2022-12-12T06:22:54.222Z,11.53
2022-12-12T06:25:21.231Z,12.23
2022-12-12T06:27:48.003Z,16.53
2022-12-12T06:30:14.993Z,16.13
2022-12-12T06:32:41.963Z,18.10
2022-12-12T06:35:09.530Z,17.47
2022-12-12T06:37:36.439Z,17.40
2022-12-12T06:40:04.962Z,17.93
2022-12-12T06:42:31.700Z,18.70
2022-12-12T06:44:58.340Z,18.17
2022-12-12T06:47:25.093Z,18.07
2022-12-12T06:49:51.729Z,18.40
2022-12-12T06:52:18.414Z,18.80
2022-12-12T06:54:45.034Z,18.23
2022-12-12T06:57:11.687Z,18.80
2022-12-12T06:59:38.449Z,18.10
2022-12-12T07:02:05.480Z,18.23
2022-12-12T07:04:32.178Z,18.60
2022-12-12T07:06:58.848Z,18.50
2022-12-12T07:09:25.599Z,16.73
2022-12-12T07:11:52.242Z,18.33
2022-12-12T07:14:18.927Z,19.83
2022-12-12T07:16:45.617Z,19.40
2022-12-12T07:19:12.265Z,18.47
2022-12-12T07:21:39.193Z,17.33
2022-12-12T07:24:05.965Z,17.60
2022-12-12T07:26:32.715Z,18.67
2022-12-12T07:28:59.376Z,15.90
2022-12-12T07:31:26.538Z,15.00
2022-12-12T07:33:54.368Z,15.80
2022-12-12T07:36:22.223Z,17.73
2022-12-12T07:38:49.034Z,18.10
2022-12-12T07:41:18.551Z,18.63
2022-12-12T07:43:46.054Z,18.00
2022-12-12T07:46:16.781Z,18.20
2022-12-12T07:48:43.884Z,20.13
2022-12-12T07:51:10.646Z,20.20
2022-12-12T07:53:37.272Z,20.83
2022-12-12T07:56:08.873Z,18.10
2022-12-12T07:58:36.023Z,17.33
2022-12-12T08:01:19.565Z,17.27
2022-12-12T08:03:47.187Z,16.27
2022-12-12T08:06:16.224Z,17.20
2022-12-12T08:08:43.633Z,16.20
2022-12-12T08:11:12.621Z,15.30
2022-12-12T08:13:40.358Z,17.57
2022-12-12T08:16:12.507Z,16.67
2022-12-12T08:18:39.224Z,18.10
2022-12-12T08:21:10.908Z,16.00
2022-12-12T08:23:38.861Z,17.73
2022-12-12T08:26:11.369Z,16.70
2022-12-12T08:28:38.700Z,16.63
2022-12-12T08:31:05.442Z,17.97
2022-12-12T08:33:32.121Z,15.23
2022-12-12T08:35:59.185Z,15.97
2022-12-12T08:38:25.890Z,15.47
2022-12-12T08:40:52.629Z,15.63
2022-12-12T08:43:19.296Z,14.63
2022-12-12T08:45:47.472Z,13.67
2022-12-12T08:48:14.246Z,14.33
2022-12-12T08:50:41.493Z,14.90
2022-12-12T08:53:08.115Z,16.53
2022-12-12T08:55:34.811Z,15.37
2022-12-12T08:58:02.003Z,15.47
2022-12-12T09:00:28.748Z,14.60
2022-12-12T09:02:55.544Z,14.80
2022-12-12T09:05:22.355Z,16.33
2022-12-12T09:07:49.859Z,16.53
2022-12-12T09:10:16.722Z,14.97
2022-12-12T09:12:43.324Z,16.23
2022-12-12T09:15:10.495Z,16.13
2022-12-12T09:17:37.353Z,17.00
2022-12-12T09:20:04.730Z,17.07
2022-12-12T09:22:31.348Z,15.63
2022-12-12T09:24:58.027Z,13.93
2022-12-12T09:27:24.691Z,14.40
2022-12-12T09:29:51.377Z,15.00
2022-12-12T09:32:22.780Z,14.10
2022-12-12T09:34:51.207Z,11.83
2022-12-12T09:37:17.825Z,11.97
2022-12-12T09:39:44.532Z,10.77
2022-12-12T09:42:32.145Z,10.93
2022-12-12T09:45:07.574Z,9.93
2022-12-12T09:47:42.212Z,8.57
2022-12-12T09:50:21.867Z,9.57
2022-12-12T09:52:49.006Z,11.80
2022-12-12T09:55:37.410Z,10.53
2022-12-12T09:58:14.071Z,10.37
2022-12-12T10:00:49.103Z,10.63
2022-12-12T10:03:39.366Z,10.67
2022-12-12T10:09:30.124Z,11.63
2022-12-12T10:11:59.291Z,11.27
2022-12-12T10:14:45.820Z,12.53
2022-12-12T10:17:19.149Z,11.93
2022-12-12T10:19:55.788Z,10.33
2022-12-12T10:22:32.445Z,12.80
2022-12-12T10:25:20.143Z,12.00
2022-12-12T10:27:47.955Z,12.90
2022-12-12T10:30:18.102Z,13.10
2022-12-12T10:32:44.748Z,12.73
2022-12-12T10:35:39.588Z,14.27
2022-12-12T10:38:22.885Z,13.27
2022-12-12T10:40:59.513Z,12.83
2022-12-12T10:43:37.958Z,11.23
2022-12-12T10:46:17.740Z,13.60
2022-12-12T10:48:47.041Z,12.33
2022-12-12T10:51:17.585Z,11.47
2022-12-12T10:53:44.804Z,11.43
2022-12-12T10:56:19.676Z,12.17
2022-12-12T10:58:57.003Z,11.00
2022-12-12T11:02:08.438Z,9.53
2022-12-12T11:04:23.025Z,9.40
2022-12-12T11:06:52.115Z,8.30
2022-12-12T11:09:20.871Z,9.30
2022-12-12T11:12:02.927Z,9.10
2022-12-12T11:14:35.550Z,8.63
2022-12-12T11:17:02.989Z,9.70
2022-12-12T11:19:38.829Z,9.13
2022-12-12T11:22:05.615Z,11.60
2022-12-12T11:24:34.083Z,10.87
2022-12-12T11:27:04.032Z,10.70
2022-12-12T11:29:40.044Z,9.57
2022-12-12T11:32:47.904Z,11.00
2022-12-12T11:35:23.722Z,9.20
2022-12-12T11:37:55.886Z,10.10
2022-12-12T11:40:26.445Z,9.07
2022-12-12T11:43:24.276Z,9.80
2022-12-12T11:46:16.665Z,10.03
2022-12-12T11:48:52.695Z,10.27
2022-12-12T11:51:35.545Z,9.80
2022-12-12T11:54:04.867Z,9.40
2022-12-12T11:56:50.654Z,11.50
2022-12-12T11:59:39.005Z,12.30
2022-12-12T12:02:33.013Z,12.00
2022-12-12T12:05:18.368Z,12.30
2022-12-12T12:08:09.954Z,11.47
2022-12-12T12:10:42.465Z,11.93
2022-12-12T12:13:16.898Z,9.30
2022-12-12T12:15:51.968Z,9.07
2022-12-12T12:18:33.413Z,10.93
2022-12-12T12:21:27.995Z,10.57
2022-12-12T12:24:03.378Z,10.60
2022-12-12T12:26:49.700Z,10.93
2022-12-12T12:29:42.095Z,11.53
2022-12-12T12:32:16.174Z,11.43
2022-12-12T12:34:42.793Z,9.97
2022-12-12T12:37:31.710Z,9.07
2022-12-12T12:40:43.526Z,9.70
2022-12-12T12:43:16.283Z,9.40
2022-12-12T12:46:07.680Z,8.77
2022-12-12T12:48:58.549Z,12.00
2022-12-12T12:51:29.496Z,10.53
2022-12-12T12:54:02.378Z,9.57
2022-12-12T12:56:31.657Z,10.77
2022-12-12T12:59:04.896Z,11.33
2022-12-12T13:01:37.364Z,11.53
2022-12-12T13:04:23.053Z,11.20
2022-12-12T13:06:58.584Z,13.97
2022-12-12T13:10:01.760Z,14.33
2022-12-12T13:12:41.573Z,12.80
2022-12-12T13:15:28.036Z,11.87
2022-12-12T13:18:04.527Z,11.43
2022-12-12T13:20:34.696Z,12.53
2022-12-12T13:23:40.412Z,12.07
2022-12-12T13:26:13.040Z,12.53
2022-12-12T13:28:45.825Z,12.60
2022-12-12T13:31:34.023Z,12.80
2022-12-12T13:34:08.828Z,11.33
2022-12-12T13:36:38.566Z,12.57
2022-12-12T13:39:07.337Z,12.80
2022-12-12T13:42:09.349Z,11.97
2022-12-12T13:44:44.868Z,12.50
2022-12-12T13:47:23.828Z,12.87
2022-12-12T13:50:22.509Z,11.83
2022-12-12T13:53:09.380Z,12.20
2022-12-12T13:55:37.094Z,11.53
2022-12-12T13:58:16.935Z,12.00
2022-12-12T14:00:44.042Z,11.77
2022-12-12T14:03:10.812Z,11.73
2022-12-12T14:05:52.639Z,11.33
2022-12-12T14:08:23.382Z,11.60
2022-12-12T14:10:50.050Z,10.87
2022-12-12T14:13:22.623Z,11.50
2022-12-12T14:16:23.045Z,11.13
2022-12-12T14:18:49.694Z,11.03
2022-12-12T14:21:18.894Z,10.50
2022-12-12T14:23:51.781Z,11.30
2022-12-12T14:26:27.858Z,10.90
2022-12-12T14:29:16.325Z,11.17
2022-12-12T14:32:24.225Z,11.10
2022-12-12T14:34:59.689Z,11.23
2022-12-12T14:37:38.325Z,10.87
2022-12-12T14:40:05.033Z,11.27
2022-12-12T14:43:20.263Z,12.90
2022-12-12T14:45:49.528Z,11.70
2022-12-12T14:48:22.904Z,11.07
2022-12-12T14:51:04.801Z,13.20
2022-12-12T14:53:45.740Z,12.17
2022-12-12T14:56:26.457Z,12.50
2022-12-12T14:59:05.554Z,11.83
2022-12-12T15:01:34.264Z,13.33
2022-12-12T15:04:04.213Z,13.17
2022-12-12T15:06:43.481Z,13.07
2022-12-12T15:09:29.597Z,12.57
2022-12-12T15:12:17.647Z,12.73
2022-12-12T15:14:47.295Z,12.40
2022-12-12T15:17:17.967Z,12.87
2022-12-12T15:20:07.070Z,13.07
2022-12-12T15:22:36.888Z,12.60
2022-12-12T15:25:18.186Z,13.87
2022-12-12T15:27:53.844Z,13.27
2022-12-12T15:30:34.237Z,12.50
2022-12-12T15:33:03.274Z,13.20
2022-12-12T15:35:30.377Z,13.37
2022-12-12T15:38:00.444Z,13.10
2022-12-12T15:40:32.167Z,13.27
2022-12-12T15:43:11.761Z,13.93
2022-12-12T15:45:42.781Z,13.90
2022-12-12T15:48:17.362Z,13.73
2022-12-12T15:50:44.067Z,13.63
2022-12-12T15:53:29.902Z,13.43
2022-12-12T15:56:04.769Z,13.00
2022-12-12T15:58:43.790Z,13.43
2022-12-12T16:01:20.298Z,12.93
2022-12-12T16:04:02.698Z,11.93
2022-12-12T16:06:44.441Z,12.03
2022-12-12T16:09:11.041Z,11.43
2022-12-12T16:11:42.555Z,11.00
2022-12-12T16:14:27.897Z,12.03
2022-12-12T16:17:03.128Z,11.00
2022-12-12T16:19:51.368Z,11.43
2022-12-12T16:22:47.782Z,11.73
2022-12-12T16:25:27.721Z,10.50
2022-12-12T16:28:09.768Z,10.53
2022-12-12T16:30:38.083Z,11.57
2022-12-12T16:33:35.411Z,10.23
2022-12-12T16:36:11.341Z,10.27
2022-12-12T16:38:40.107Z,10.20
2022-12-12T16:41:18.241Z,10.03
2022-12-12T16:43:45.401Z,9.87
2022-12-12T16:46:17.218Z,11.17
2022-12-12T16:48:44.122Z,9.60
2022-12-12T16:51:16.728Z,9.50
2022-12-12T16:53:43.599Z,11.53
2022-12-12T16:56:13.258Z,10.63
2022-12-12T16:58:41.272Z,11.10
2022-12-12T17:01:08.006Z,11.23
2022-12-12T17:03:34.709Z,11.50
2022-12-12T17:06:01.639Z,10.77
2022-12-12T17:08:28.656Z,10.80
2022-12-12T17:11:10.442Z,9.47
2022-12-12T17:13:40.901Z,10.13
2022-12-12T17:16:07.711Z,9.83
2022-12-12T17:18:34.484Z,10.17
2022-12-12T17:21:01.097Z,10.63
2022-12-12T17:23:27.821Z,10.30
2022-12-12T17:26:00.736Z,9.87
2022-12-12T17:28:29.516Z,10.30
2022-12-12T17:30:56.184Z,10.57
2022-12-12T17:33:22.821Z,10.50
2022-12-12T17:36:04.451Z,11.17
2022-12-12T17:38:31.476Z,10.87
2022-12-12T17:41:01.947Z,10.53
2022-12-12T17:43:28.605Z,11.10
2022-12-12T17:46:03.363Z,10.83
2022-12-12T17:48:32.034Z,9.97
2022-12-12T17:51:04.261Z,10.47
2022-12-12T17:53:32.692Z,11.00
2022-12-12T17:56:01.719Z,11.83
2022-12-12T17:58:40.362Z,11.33
2022-12-12T18:01:18.726Z,10.63
2022-12-12T18:03:46.043Z,10.57
2022-12-12T18:06:14.251Z,11.53
2022-12-12T18:08:41.186Z,11.07
2022-12-12T18:11:09.971Z,10.33
2022-12-12T18:13:38.618Z,10.73
2022-12-12T18:16:06.469Z,11.53
2022-12-12T18:18:33.233Z,11.70
2022-12-12T18:21:08.696Z,10.77
2022-12-12T18:23:36.143Z,11.77
2022-12-12T18:26:08.933Z,11.17
2022-12-12T18:28:36.254Z,11.60
2022-12-12T18:31:04.191Z,10.20
2022-12-12T18:33:31.262Z,11.43
2022-12-12T18:36:03.373Z,11.87
2022-12-12T18:38:30.990Z,13.00
2022-12-12T18:40:57.798Z,13.93
2022-12-12T18:43:26.404Z,13.77
2022-12-12T18:45:53.871Z,13.60
2022-12-12T18:48:20.575Z,14.93
2022-12-12T18:50:47.832Z,18.20
2022-12-12T18:53:14.471Z,19.13
2022-12-12T18:55:44.800Z,20.07
2022-12-12T18:58:12.302Z,21.03
2022-12-12T19:00:40.307Z,19.13
2022-12-12T19:03:08.052Z,18.93
2022-12-12T19:05:40.551Z,19.40
2022-12-12T19:08:07.847Z,18.97
2022-12-12T19:10:38.399Z,19.50
2022-12-12T19:13:05.079Z,18.60
2022-12-12T19:15:31.857Z,19.00
2022-12-12T19:17:58.543Z,19.37
2022-12-12T19:20:25.624Z,19.57
2022-12-12T19:22:52.311Z,20.07
2022-12-12T19:25:19.052Z,18.70
2022-12-12T19:27:46.431Z,18.00
2022-12-12T19:30:15.686Z,18.53
2022-12-12T19:32:42.659Z,18.93
2022-12-12T19:35:10.007Z,17.83
2022-12-12T19:37:37.254Z,18.60
2022-12-12T19:40:05.781Z,18.83
2022-12-12T19:42:32.432Z,18.77
2022-12-12T19:44:59.083Z,18.83
2022-12-12T19:47:25.810Z,18.43
2022-12-12T19:49:52.549Z,18.70
2022-12-12T19:52:19.732Z,18.07
2022-12-12T19:54:46.379Z,18.57
2022-12-12T19:57:13.063Z,19.57
2022-12-12T19:59:40.030Z,20.10
2022-12-12T20:02:07.219Z,21.17
2022-12-12T20:04:33.948Z,21.43
2022-12-12T20:07:03.591Z,23.47
2022-12-12T20:09:30.463Z,21.50
2022-12-12T20:12:00.325Z,20.93
2022-12-12T20:14:29.708Z,21.73
2022-12-12T20:16:57.582Z,22.33
2022-12-12T20:19:26.875Z,20.37
2022-12-12T20:22:02.573Z,20.60
2022-12-12T20:24:30.903Z,21.87
2022-12-12T20:26:59.273Z,21.23
2022-12-12T20:29:26.317Z,21.17
2022-12-12T20:31:53.003Z,19.97
2022-12-12T20:34:25.018Z,21.10
2022-12-12T20:36:52.590Z,21.13
2022-12-12T20:39:21.912Z,22.67
2022-12-12T20:41:50.076Z,21.30
2022-12-12T20:44:16.732Z,19.90
2022-12-12T20:46:45.443Z,21.03
2022-12-12T20:49:17.667Z,22.00
2022-12-12T20:52:00.949Z,21.77
2022-12-12T20:54:29.172Z,22.00
2022-12-12T20:56:57.183Z,22.60
2022-12-12T20:59:24.766Z,22.63
2022-12-12T21:01:52.059Z,21.90
2022-12-12T21:04:18.896Z,21.50
2022-12-12T21:06:51.108Z,21.37
2022-12-12T21:09:23.928Z,22.40
2022-12-12T21:11:56.935Z,23.07
2022-12-12T21:14:25.120Z,22.00
2022-12-12T21:16:51.820Z,21.17
2022-12-12T21:19:18.987Z,22.70
2022-12-12T21:21:46.427Z,20.90
2022-12-12T21:24:15.363Z,20.63
2022-12-12T21:26:42.662Z,20.13
2022-12-12T21:29:09.851Z,20.37
2022-12-12T21:31:42.333Z,19.53
2022-12-12T21:34:13.496Z,18.63
2022-12-12T21:36:40.224Z,19.17
2022-12-12T21:39:07.116Z,19.00
2022-12-12T21:41:34.987Z,19.53
2022-12-12T21:44:01.772Z,19.67
2022-12-12T21:46:30.109Z,19.47
2022-12-12T21:49:16.658Z,18.90
2022-12-12T21:51:43.842Z,19.17
2022-12-12T21:54:12.512Z,19.27
2022-12-12T21:56:40.729Z,19.37
2022-12-12T21:59:08.927Z,19.47
2022-12-12T22:01:35.652Z,19.97
2022-12-12T22:04:02.742Z,20.60
2022-12-12T22:06:32.444Z,20.50
2022-12-12T22:09:00.590Z,18.70
2022-12-12T22:11:39.912Z,19.13
2022-12-12T22:14:13.663Z,19.67
2022-12-12T22:16:40.388Z,19.60
2022-12-12T22:19:10.096Z,19.50
2022-12-12T22:21:37.210Z,20.53
2022-12-12T22:24:04.656Z,20.10
2022-12-12T22:26:34.803Z,20.67
2022-12-12T22:29:14.235Z,20.10
2022-12-12T22:31:41.878Z,20.07
2022-12-12T22:34:15.661Z,20.70
2022-12-12T22:36:44.216Z,21.53
2022-12-12T22:39:18.206Z,19.10
2022-12-12T22:41:45.453Z,19.23
2022-12-12T22:44:15.653Z,19.77
2022-12-12T22:46:46.091Z,19.47
2022-12-12T22:49:20.068Z,20.93
2022-12-12T22:51:48.251Z,19.03
2022-12-12T22:54:15.462Z,20.57
2022-12-12T22:56:42.242Z,19.27
2022-12-12T22:59:11.725Z,18.27
2022-12-12T23:01:38.441Z,18.37
2022-12-12T23:04:05.466Z,17.47
2022-12-12T23:06:34.558Z,18.13
2022-12-12T23:09:06.954Z,16.77
2022-12-12T23:11:35.050Z,17.70
2022-12-12T23:14:07.378Z,16.40
2022-12-12T23:16:35.779Z,17.00
2022-12-12T23:19:04.988Z,17.97
2022-12-12T23:21:32.236Z,18.30
2022-12-12T23:23:58.920Z,19.23
2022-12-12T23:26:29.905Z,18.33
2022-12-12T23:29:00.200Z,19.83
2022-12-12T23:31:30.260Z,18.47
2022-12-12T23:34:01.504Z,19.37
2022-12-12T23:36:28.850Z,19.10
2022-12-12T23:39:00.676Z,18.40
2022-12-12T23:41:27.997Z,17.97
2022-12-12T23:43:55.428Z,18.40
2022-12-12T23:46:28.701Z,18.70
2022-12-12T23:49:01.379Z,17.37
2022-12-12T23:51:30.413Z,16.53
2022-12-12T23:53:59.067Z,17.20
2022-12-12T23:56:26.478Z,16.47
2022-12-12T23:58:54.119Z,18.13
